createdAt,value
2023-01-03T00:01:45.908Z,97415.66
2023-01-03T00:04:14.765Z,97420.25
2023-01-03T00:06:47.972Z,97422.09
2023-01-03T00:09:19.378Z,97422.78
2023-01-03T00:12:07.523Z,97421.75
2023-01-03T00:14:38.584Z,97417.63
2023-01-03T00:17:08.787Z,97413.44
2023-01-03T00:19:40.599Z,97425.91
2023-01-03T00:22:12.118Z,97402.88
2023-01-03T00:24:40.537Z,97416.13
2023-01-03T00:27:10.113Z,97423.66
2023-01-03T00:29:38.899Z,97415.97
2023-01-03T00:32:08.989Z,97425.75
2023-01-03T00:34:37.759Z,97428.69
2023-01-03T00:37:06.713Z,97428.03
2023-01-03T00:39:37.285Z,97435.34
2023-01-03T00:42:05.711Z,97427.44
2023-01-03T00:44:35.173Z,97428.47
2023-01-03T00:47:04.080Z,97431.66
2023-01-03T00:49:32.655Z,97440.75
2023-01-03T00:52:01.976Z,97434.97
2023-01-03T00:54:30.332Z,97436.84
2023-01-03T00:57:00.282Z,97435.19
2023-01-03T00:59:28.736Z,97454.13
2023-01-03T01:01:59.131Z,97447.47
2023-01-03T01:04:29.903Z,97444.75
2023-01-03T01:07:01.672Z,97448.72
2023-01-03T01:09:33.186Z,97447.91
2023-01-03T01:12:03.180Z,97430.00
2023-01-03T01:14:33.918Z,97458.72
2023-01-03T01:17:03.947Z,97454.97
2023-01-03T01:19:35.294Z,97457.03
2023-01-03T01:22:04.792Z,97459.56
2023-01-03T01:24:33.941Z,97462.44
2023-01-03T01:27:03.885Z,97460.38
2023-01-03T01:29:33.652Z,97464.13
2023-01-03T01:32:02.988Z,97461.63
2023-01-03T01:34:33.646Z,97467.88
2023-01-03T01:37:01.990Z,97466.19
2023-01-03T01:39:31.775Z,97469.97
2023-01-03T01:42:23.148Z,97474.31
2023-01-03T01:44:57.483Z,97470.41
2023-01-03T01:47:31.991Z,97470.19
2023-01-03T01:50:07.305Z,97469.97
2023-01-03T01:52:39.953Z,97472.66
2023-01-03T01:55:13.076Z,97467.88
2023-01-03T01:57:44.387Z,97457.25
2023-01-03T02:00:15.855Z,97459.13
2023-01-03T02:02:49.378Z,97459.94
2023-01-03T02:05:20.655Z,97468.06
2023-01-03T02:07:51.169Z,97488.28
2023-01-03T02:10:26.579Z,97484.53
2023-01-03T02:13:10.566Z,97482.88
2023-01-03T02:15:54.756Z,97482.03
2023-01-03T02:18:36.878Z,97482.47
2023-01-03T02:21:32.706Z,97486.84
2023-01-03T02:24:34.089Z,97490.16
2023-01-03T02:27:19.337Z,97504.13
2023-01-03T02:30:30.595Z,97502.03
2023-01-03T02:33:11.888Z,97509.09
2023-01-03T02:35:50.040Z,97512.00
2023-01-03T02:38:26.192Z,97512.00
2023-01-03T02:41:02.413Z,97513.88
2023-01-03T02:43:38.181Z,97514.94
2023-01-03T02:46:14.090Z,97506.19
2023-01-03T02:48:50.375Z,97506.59
2023-01-03T02:51:23.360Z,97497.66
2023-01-03T02:53:53.050Z,97505.16
2023-01-03T02:56:26.315Z,97510.56
2023-01-03T02:59:01.550Z,97522.44
2023-01-03T03:01:32.220Z,97525.75
2023-01-03T03:04:04.482Z,97527.63
2023-01-03T03:06:40.057Z,97531.78
2023-01-03T03:09:08.956Z,97532.38
2023-01-03T03:11:58.828Z,97526.56
2023-01-03T03:14:33.563Z,97523.25
2023-01-03T03:17:07.815Z,97514.50
2023-01-03T03:19:56.053Z,97510.78
2023-01-03T03:22:48.258Z,97515.97
2023-01-03T03:25:23.183Z,97506.59
2023-01-03T03:28:11.942Z,97486.00
2023-01-03T03:30:44.981Z,97501.84
2023-01-03T03:33:16.760Z,97502.84
2023-01-03T03:35:48.928Z,97503.72
2023-01-03T03:38:22.477Z,97501.19
2023-01-03T03:41:24.114Z,97503.06
2023-01-03T03:44:22.943Z,97502.44
2023-01-03T03:46:56.666Z,97502.00
2023-01-03T03:49:39.336Z,97503.69
2023-01-03T03:52:13.394Z,97509.09
2023-01-03T03:54:47.007Z,97500.34
2023-01-03T03:57:22.537Z,97513.25
2023-01-03T03:59:55.655Z,97500.75
2023-01-03T04:02:27.791Z,97496.81
2023-01-03T04:05:01.203Z,97493.06
2023-01-03T04:07:30.741Z,97493.69
2023-01-03T04:09:59.302Z,97504.09
2023-01-03T04:12:27.756Z,97498.47
2023-01-03T04:14:57.090Z,97498.47
2023-01-03T04:17:25.973Z,97499.72
2023-01-03T04:19:54.383Z,97512.63
2023-01-03T04:22:24.317Z,97519.09
2023-01-03T04:24:52.671Z,97522.78
2023-01-03T04:27:21.816Z,97532.38
2023-01-03T04:29:50.482Z,97520.72
2023-01-03T04:32:19.555Z,97531.94
2023-01-03T04:34:47.956Z,97539.03
2023-01-03T04:37:16.766Z,97536.50
2023-01-03T04:39:47.112Z,97545.44
2023-01-03T04:42:33.824Z,97538.59
2023-01-03T04:45:02.456Z,97541.50
2023-01-03T04:47:31.278Z,97551.28
2023-01-03T04:50:00.200Z,97546.69
2023-01-03T04:52:29.991Z,97566.88
2023-01-03T04:55:00.753Z,97553.16
2023-01-03T04:57:29.173Z,97554.41
2023-01-03T04:59:58.470Z,97564.19
2023-01-03T05:02:27.439Z,97551.03
2023-01-03T05:04:56.136Z,97542.09
2023-01-03T05:07:24.467Z,97553.56
2023-01-03T05:09:52.790Z,97550.19
2023-01-03T05:12:23.384Z,97553.13
2023-01-03T05:14:52.277Z,97556.63
2023-01-03T05:17:21.332Z,97556.41
2023-01-03T05:20:08.428Z,97559.75
2023-01-03T05:22:54.592Z,97556.22
2023-01-03T05:25:42.999Z,97563.91
2023-01-03T05:28:17.287Z,97563.72
2023-01-03T05:30:46.750Z,97561.00
2023-01-03T05:33:15.560Z,97566.63
2023-01-03T05:35:46.850Z,97572.66
2023-01-03T05:38:16.385Z,97568.28
2023-01-03T05:40:45.141Z,97577.03
2023-01-03T05:43:15.393Z,97585.16
2023-01-03T05:45:43.899Z,97573.88
2023-01-03T05:48:13.085Z,97591.16
2023-01-03T05:50:41.941Z,97590.09
2023-01-03T05:53:10.424Z,97599.66
2023-01-03T05:55:40.480Z,97594.66
2023-01-03T05:58:09.343Z,97598.16
2023-01-03T06:00:40.171Z,97593.81
2023-01-03T06:03:08.775Z,97595.03
2023-01-03T06:05:38.094Z,97600.25
2023-01-03T06:08:06.876Z,97592.75
2023-01-03T06:10:37.148Z,97595.25
2023-01-03T06:13:06.185Z,97594.25
2023-01-03T06:15:34.542Z,97580.44
2023-01-03T06:18:04.132Z,97589.38
2023-01-03T06:20:32.507Z,97597.47
2023-01-03T06:23:01.887Z,97598.31
2023-01-03T06:25:30.237Z,97591.25
2023-01-03T06:27:59.058Z,97594.41
2023-01-03T06:30:27.518Z,97607.69
2023-01-03T06:32:56.319Z,97614.97
2023-01-03T06:35:26.108Z,97619.72
2023-01-03T06:37:54.472Z,97595.59
2023-01-03T06:40:23.357Z,97603.69
2023-01-03T06:42:51.721Z,97611.56
2023-01-03T06:45:38.613Z,97609.03
2023-01-03T06:48:25.433Z,97611.75
2023-01-03T06:51:14.517Z,97603.00
2023-01-03T06:53:44.169Z,97599.91
2023-01-03T06:56:12.780Z,97609.25
2023-01-03T06:58:42.315Z,97605.31
2023-01-03T07:01:10.918Z,97611.56
2023-01-03T07:03:39.825Z,97619.00
2023-01-03T07:06:09.568Z,97614.03
2023-01-03T07:08:44.143Z,97613.41
2023-01-03T07:11:16.530Z,97614.22
2023-01-03T07:14:00.803Z,97617.94
2023-01-03T07:16:31.725Z,97625.66
2023-01-03T07:19:00.440Z,97631.06
2023-01-03T07:21:34.785Z,97633.13
2023-01-03T07:24:05.732Z,97625.81
2023-01-03T07:26:36.403Z,97636.63
2023-01-03T07:29:07.604Z,97640.72
2023-01-03T07:31:40.856Z,97637.84
2023-01-03T07:34:10.642Z,97628.91
2023-01-03T07:36:40.971Z,97656.41
2023-01-03T07:39:09.458Z,97643.94
2023-01-03T07:41:56.222Z,97650.59
2023-01-03T07:44:24.914Z,97632.25
2023-01-03T07:46:53.425Z,97627.22
2023-01-03T07:49:22.810Z,97660.34
2023-01-03T07:51:52.480Z,97658.47
2023-01-03T07:54:21.340Z,97667.41
2023-01-03T07:56:50.546Z,97665.13
2023-01-03T07:59:19.026Z,97673.03
2023-01-03T08:01:48.137Z,97657.34
2023-01-03T08:04:17.639Z,97663.00
2023-01-03T08:06:46.590Z,97676.50
2023-01-03T08:09:34.935Z,97676.50
2023-01-03T08:12:21.400Z,97671.31
2023-01-03T08:14:49.893Z,97676.50
2023-01-03T08:17:18.481Z,97688.81
2023-01-03T08:19:46.834Z,97688.81
2023-01-03T08:22:15.255Z,97692.97
2023-01-03T08:24:45.339Z,97675.06
2023-01-03T08:27:13.762Z,97692.75
2023-01-03T08:29:42.531Z,97680.75
2023-01-03T08:32:11.484Z,97692.81
2023-01-03T08:34:44.303Z,97693.47
2023-01-03T08:37:16.398Z,97682.41
2023-01-03T08:39:52.455Z,97697.00
2023-01-03T08:42:23.852Z,97699.69
2023-01-03T08:45:00.001Z,97703.41
2023-01-03T08:47:30.198Z,97678.84
2023-01-03T08:49:59.820Z,97685.69
2023-01-03T08:52:34.604Z,97708.44
2023-01-03T08:55:06.213Z,97709.28
2023-01-03T08:57:34.709Z,97720.06
2023-01-03T09:00:06.139Z,97727.97
2023-01-03T09:02:36.339Z,97721.75
2023-01-03T09:05:05.387Z,97724.06
2023-01-03T09:07:34.187Z,97713.22
2023-01-03T09:10:03.235Z,97730.09
2023-01-03T09:12:32.954Z,97715.91
2023-01-03T09:15:01.345Z,97732.38
2023-01-03T09:17:31.117Z,97703.41
2023-01-03T09:19:59.539Z,97733.88
2023-01-03T09:22:28.228Z,97732.84
2023-01-03T09:24:56.687Z,97737.22
2023-01-03T09:27:26.216Z,97733.47
2023-01-03T09:29:55.980Z,97725.72
2023-01-03T09:32:24.333Z,97736.38
2023-01-03T09:34:52.673Z,97744.69
2023-01-03T09:37:21.205Z,97742.59
2023-01-03T09:39:49.576Z,97740.13
2023-01-03T09:42:39.643Z,97757.16
2023-01-03T09:45:15.426Z,97756.69
2023-01-03T09:47:45.579Z,97744.22
2023-01-03T09:50:38.866Z,97749.63
2023-01-03T09:53:34.250Z,97750.88
2023-01-03T09:56:19.944Z,97744.19
2023-01-03T09:59:11.963Z,97712.69
2023-01-03T10:02:10.711Z,97732.94
2023-01-03T10:04:58.377Z,97729.47
2023-01-03T10:07:44.548Z,97724.22
2023-01-03T10:10:19.879Z,97738.19
2023-01-03T10:13:03.932Z,97710.47
2023-01-03T10:15:42.691Z,97733.03
2023-01-03T10:18:28.168Z,97740.75
2023-01-03T10:21:02.763Z,97736.78
2023-01-03T10:23:32.184Z,97724.38
2023-01-03T10:26:00.959Z,97698.50
2023-01-03T10:28:37.798Z,97717.34
2023-01-03T10:31:21.418Z,97717.13
2023-01-03T10:33:52.307Z,97724.44
2023-01-03T10:36:22.603Z,97717.47
2023-01-03T10:39:05.505Z,97716.47
2023-01-03T10:41:41.926Z,97717.94
2023-01-03T10:44:24.069Z,97715.00
2023-01-03T10:46:54.858Z,97715.00
2023-01-03T10:49:29.508Z,97710.22
2023-01-03T10:52:02.644Z,97711.69
2023-01-03T10:54:45.686Z,97686.72
2023-01-03T10:57:37.500Z,97708.81
2023-01-03T11:00:26.965Z,97701.94
2023-01-03T11:02:56.807Z,97710.47
2023-01-03T11:05:28.374Z,97707.34
2023-01-03T11:07:57.909Z,97712.56
2023-01-03T11:10:35.528Z,97717.75
2023-01-03T11:13:18.200Z,97701.97
2023-01-03T11:15:46.575Z,97711.91
2023-01-03T11:18:21.016Z,97708.00
2023-01-03T11:20:55.662Z,97711.13
2023-01-03T11:23:37.009Z,97706.38
2023-01-03T11:26:18.979Z,97720.28
2023-01-03T11:29:08.062Z,97716.13
2023-01-03T11:31:47.876Z,97706.94
2023-01-03T11:35:03.062Z,97696.72
2023-01-03T11:37:32.849Z,97699.84
2023-01-03T11:40:14.294Z,97697.13
2023-01-03T11:42:56.351Z,97696.28
2023-01-03T11:45:48.442Z,97697.13
2023-01-03T11:48:40.794Z,97682.56
2023-01-03T11:51:15.395Z,97683.41
2023-01-03T11:54:03.324Z,97690.69
2023-01-03T11:56:36.243Z,97682.75
2023-01-03T11:59:26.813Z,97693.81
2023-01-03T12:02:28.923Z,97685.47
2023-01-03T12:05:14.699Z,97691.28
2023-01-03T12:07:57.428Z,97690.06
2023-01-03T12:10:36.699Z,97680.03
2023-01-03T12:13:17.769Z,97689.63
2023-01-03T12:15:50.721Z,97686.72
2023-01-03T12:18:30.148Z,97684.22
2023-01-03T12:21:03.786Z,97685.06
2023-01-03T12:23:40.864Z,97688.81
2023-01-03T12:26:13.471Z,97677.75
2023-01-03T12:28:43.640Z,97691.94
2023-01-03T12:31:27.837Z,97688.19
2023-01-03T12:34:10.115Z,97688.19
2023-01-03T12:36:46.115Z,97689.22
2023-01-03T12:39:37.068Z,97687.75
2023-01-03T12:42:15.706Z,97682.34
2023-01-03T12:44:47.413Z,97677.78
2023-01-03T12:47:23.724Z,97671.38
2023-01-03T12:49:59.124Z,97676.78
2023-01-03T12:52:28.904Z,97674.69
2023-01-03T12:55:02.482Z,97672.19
2023-01-03T12:57:53.160Z,97667.78
2023-01-03T13:00:41.834Z,97671.34
2023-01-03T13:03:21.007Z,97660.53
2023-01-03T13:05:52.876Z,97665.34
2023-01-03T13:08:31.793Z,97654.09
2023-01-03T13:11:05.010Z,97635.56
2023-01-03T13:13:35.958Z,97657.66
2023-01-03T13:16:39.148Z,97661.84
2023-01-03T13:19:51.426Z,97666.19
2023-01-03T13:22:23.679Z,97659.50
2023-01-03T13:24:53.163Z,97663.47
2023-01-03T13:27:35.099Z,97664.31
2023-01-03T13:30:20.679Z,97656.19
2023-01-03T13:32:52.075Z,97662.22
2023-01-03T13:35:32.681Z,97656.63
2023-01-03T13:38:24.068Z,97658.50
2023-01-03T13:43:51.222Z,97653.06
2023-01-03T13:46:25.953Z,97669.50
2023-01-03T13:48:58.603Z,97659.72
2023-01-03T13:51:50.702Z,97666.00
2023-01-03T13:54:37.537Z,97662.69
2023-01-03T13:57:28.983Z,97652.25
2023-01-03T14:00:00.194Z,97659.97
2023-01-03T14:05:56.754Z,97669.78
2023-01-03T14:08:43.086Z,97673.31
2023-01-03T14:11:42.399Z,97674.97
2023-01-03T14:14:14.463Z,97684.56
2023-01-03T14:16:47.700Z,97695.56
2023-01-03T14:19:22.759Z,97679.50
2023-01-03T14:21:56.321Z,97690.56
2023-01-03T14:24:30.743Z,97678.28
2023-01-03T14:27:08.928Z,97693.88
2023-01-03T14:29:44.543Z,97687.00
2023-01-03T14:32:21.758Z,97664.72
2023-01-03T14:34:50.953Z,97699.25
2023-01-03T14:37:21.461Z,97682.38
2023-01-03T14:39:56.799Z,97698.63
2023-01-03T14:42:25.750Z,97702.38
2023-01-03T14:44:57.570Z,97698.00
2023-01-03T14:47:33.482Z,97708.22
2023-01-03T14:50:03.563Z,97705.88
2023-01-03T14:52:34.941Z,97700.88
2023-01-03T14:55:08.459Z,97684.81
2023-01-03T14:57:39.681Z,97706.88
2023-01-03T15:00:13.770Z,97730.84
2023-01-03T15:02:43.109Z,97733.75
2023-01-03T15:05:26.024Z,97715.63
2023-01-03T15:07:55.596Z,97714.38
2023-01-03T15:10:35.901Z,97725.41
2023-01-03T15:13:05.359Z,97728.50
2023-01-03T15:15:39.233Z,97728.25
2023-01-03T15:18:10.053Z,97738.06
2023-01-03T15:20:41.473Z,97739.94
2023-01-03T15:23:28.379Z,97724.91
2023-01-03T15:26:00.942Z,97733.22
2023-01-03T15:28:31.986Z,97735.63
2023-01-03T15:31:14.812Z,97734.59
2023-01-03T15:33:45.387Z,97736.47
2023-01-03T15:36:19.240Z,97731.22
2023-01-03T15:38:49.774Z,97720.13
2023-01-03T15:41:38.806Z,97725.47
2023-01-03T15:44:08.250Z,97742.78
2023-01-03T15:46:37.633Z,97734.22
2023-01-03T15:49:07.219Z,97726.25
2023-01-03T15:51:37.853Z,97730.97
2023-01-03T15:54:13.562Z,97737.41
2023-01-03T15:56:49.223Z,97746.09
2023-01-03T15:59:24.803Z,97744.44
2023-01-03T16:01:54.427Z,97748.06
2023-01-03T16:04:23.668Z,97746.31
2023-01-03T16:06:53.368Z,97746.47
2023-01-03T16:09:22.335Z,97739.56
2023-01-03T16:11:58.847Z,97746.75
2023-01-03T16:14:35.192Z,97745.03
2023-01-03T16:17:06.013Z,97758.34
2023-01-03T16:19:36.084Z,97761.28
2023-01-03T16:22:33.799Z,97760.75
2023-01-03T16:24:55.549Z,97759.28
2023-01-03T16:27:26.302Z,97759.00
2023-01-03T16:29:55.110Z,97759.47
2023-01-03T16:32:27.443Z,97758.50
2023-01-03T16:34:58.452Z,97758.22
2023-01-03T16:37:28.440Z,97755.16
2023-01-03T16:39:58.859Z,97758.22
2023-01-03T16:42:28.761Z,97763.03
2023-01-03T16:44:57.854Z,97761.19
2023-01-03T16:47:31.305Z,97763.03
2023-01-03T16:50:01.997Z,97765.69
2023-01-03T16:52:35.897Z,97777.22
2023-01-03T16:55:07.918Z,97770.69
2023-01-03T16:57:38.077Z,97765.94
2023-01-03T17:00:18.096Z,97768.47
2023-01-03T17:02:47.940Z,97775.53
2023-01-03T17:05:16.929Z,97766.25
2023-01-03T17:07:48.021Z,97778.31
2023-01-03T17:10:27.232Z,97787.16
2023-01-03T17:12:58.923Z,97771.81
2023-01-03T17:15:28.475Z,97777.03
2023-01-03T17:17:56.992Z,97785.75
2023-01-03T17:20:25.556Z,97780.75
2023-01-03T17:22:57.430Z,97770.31
2023-01-03T17:25:26.950Z,97775.25
2023-01-03T17:27:59.764Z,97782.66
2023-01-03T17:30:29.633Z,97776.06
2023-01-03T17:32:58.522Z,97783.03
2023-01-03T17:35:27.544Z,97762.66
2023-01-03T17:38:24.782Z,97769.00
2023-01-03T17:40:49.560Z,97769.34
2023-01-03T17:43:24.347Z,97770.94
2023-01-03T17:46:16.125Z,97769.25
2023-01-03T17:49:07.264Z,97763.13
2023-01-03T17:51:35.951Z,97770.06
2023-01-03T17:54:05.160Z,97772.94
2023-01-03T17:56:33.592Z,97773.97
2023-01-03T17:59:05.511Z,97775.63
2023-01-03T18:01:34.361Z,97769.84
2023-01-03T18:04:03.646Z,97771.41
2023-01-03T18:06:32.305Z,97788.75
2023-01-03T18:09:04.627Z,97791.81
2023-01-03T18:11:33.086Z,97774.34
2023-01-03T18:14:03.455Z,97781.50
2023-01-03T18:16:33.500Z,97783.03
2023-01-03T18:19:02.709Z,97774.91
2023-01-03T18:21:31.565Z,97778.41
2023-01-03T18:24:03.123Z,97783.63
2023-01-03T18:26:34.883Z,97787.66
2023-01-03T18:29:06.488Z,97794.56
2023-01-03T18:31:35.518Z,97793.94
2023-01-03T18:34:04.659Z,97786.78
2023-01-03T18:36:39.787Z,97789.34
2023-01-03T18:39:14.408Z,97770.81
2023-01-03T18:41:43.185Z,97788.50
2023-01-03T18:44:20.764Z,97783.66
2023-01-03T18:46:49.247Z,97783.34
2023-01-03T18:49:18.838Z,97794.28
2023-01-03T18:51:50.326Z,97785.25
2023-01-03T18:54:21.127Z,97772.34
2023-01-03T18:56:49.784Z,97793.97
2023-01-03T18:59:23.111Z,97795.31
2023-01-03T19:01:51.819Z,97782.59
2023-01-03T19:04:21.121Z,97804.09
2023-01-03T19:06:52.149Z,97804.25
2023-01-03T19:09:23.325Z,97801.56
2023-01-03T19:11:54.002Z,97795.34
2023-01-03T19:14:24.035Z,97789.72
2023-01-03T19:16:53.083Z,97799.47
2023-01-03T19:19:21.708Z,97797.28
2023-01-03T19:21:50.885Z,97806.88
2023-01-03T19:24:24.692Z,97796.00
2023-01-03T19:26:59.548Z,97813.63
2023-01-03T19:29:37.068Z,97795.69
2023-01-03T19:32:11.201Z,97802.91
2023-01-03T19:34:42.470Z,97803.06
2023-01-03T19:37:11.311Z,97802.59
2023-01-03T19:39:40.318Z,97800.59
2023-01-03T19:42:29.057Z,97783.84
2023-01-03T19:45:00.412Z,97796.09
2023-01-03T19:47:28.961Z,97795.56
2023-01-03T19:49:59.167Z,97789.69
2023-01-03T19:52:27.548Z,97786.53
2023-01-03T19:54:55.946Z,97775.16
2023-01-03T19:57:30.165Z,97802.84
2023-01-03T20:00:01.535Z,97803.84
2023-01-03T20:02:37.631Z,97803.53
2023-01-03T20:05:18.914Z,97814.97
2023-01-03T20:07:49.037Z,97814.28
2023-01-03T20:10:19.257Z,97815.44
2023-01-03T20:12:49.012Z,97808.75
2023-01-03T20:15:25.271Z,97801.53
2023-01-03T20:17:54.899Z,97804.91
2023-01-03T20:20:24.428Z,97802.53
2023-01-03T20:23:06.406Z,97811.78
2023-01-03T20:25:37.453Z,97799.38
2023-01-03T20:28:07.253Z,97792.50
2023-01-03T20:30:38.758Z,97768.22
2023-01-03T20:33:08.067Z,97789.66
2023-01-03T20:36:08.804Z,97792.19
2023-01-03T20:38:27.160Z,97790.34
2023-01-03T20:40:57.883Z,97794.16
2023-01-03T20:43:26.666Z,97794.16
2023-01-03T20:46:00.644Z,97797.88
2023-01-03T20:48:30.473Z,97796.72
2023-01-03T20:50:59.044Z,97797.03
2023-01-03T20:53:28.154Z,97793.03
2023-01-03T20:55:57.414Z,97790.66
2023-01-03T20:58:27.527Z,97773.56
2023-01-03T21:01:04.457Z,97788.34
2023-01-03T21:03:35.523Z,97799.25
2023-01-03T21:06:14.157Z,97796.88
2023-01-03T21:08:58.012Z,97790.84
2023-01-03T21:11:28.616Z,97791.69
2023-01-03T21:13:57.923Z,97792.03
2023-01-03T21:16:34.347Z,97772.09
2023-01-03T21:19:05.364Z,97776.59
2023-01-03T21:21:35.582Z,97783.66
2023-01-03T21:24:04.829Z,97781.44
2023-01-03T21:26:34.542Z,97779.44
2023-01-03T21:29:03.045Z,97793.19
2023-01-03T21:31:34.683Z,97776.75
2023-01-03T21:34:04.448Z,97791.50
2023-01-03T21:36:34.927Z,97790.16
2023-01-03T21:39:04.519Z,97783.78
2023-01-03T21:41:34.891Z,97783.78
2023-01-03T21:44:05.083Z,97791.84
2023-01-03T21:46:34.855Z,97799.03
2023-01-03T21:49:03.595Z,97790.16
2023-01-03T21:51:38.716Z,97772.06
2023-01-03T21:54:08.602Z,97769.00
2023-01-03T21:56:45.055Z,97790.31
2023-01-03T21:59:14.669Z,97784.59
2023-01-03T22:02:03.793Z,97786.63
2023-01-03T22:04:32.709Z,97791.16
2023-01-03T22:07:01.923Z,97781.09
2023-01-03T22:09:49.936Z,97797.84
2023-01-03T22:12:20.015Z,97773.06
2023-01-03T22:14:49.137Z,97714.06
2023-01-03T22:17:18.873Z,97790.66
2023-01-03T22:19:47.257Z,97774.06
2023-01-03T22:22:15.648Z,97767.69
2023-01-03T22:24:44.087Z,97774.22
2023-01-03T22:27:12.515Z,97778.91
2023-01-03T22:29:40.975Z,97775.72
2023-01-03T22:32:10.499Z,97765.84
2023-01-03T22:34:42.986Z,97773.72
2023-01-03T22:37:11.359Z,97777.09
2023-01-03T22:39:39.805Z,97770.72
2023-01-03T22:42:08.233Z,97773.56
2023-01-03T22:44:36.623Z,97768.53
2023-01-03T22:47:05.417Z,97773.22
2023-01-03T22:49:33.883Z,97772.03
2023-01-03T22:52:03.677Z,97783.41
2023-01-03T22:54:33.557Z,97778.88
2023-01-03T22:57:02.157Z,97773.50
2023-01-03T22:59:31.339Z,97773.03
2023-01-03T23:02:00.542Z,97754.91
2023-01-03T23:04:29.086Z,97763.31
2023-01-03T23:06:57.820Z,97746.69
2023-01-03T23:09:27.556Z,97749.00
2023-01-03T23:12:13.767Z,97757.75
2023-01-03T23:14:42.132Z,97767.78
2023-01-03T23:17:28.392Z,97768.16
2023-01-03T23:19:57.237Z,97771.84
2023-01-03T23:22:26.813Z,97764.16
2023-01-03T23:24:58.423Z,97769.81
2023-01-03T23:27:27.314Z,97768.69
2023-01-03T23:29:56.665Z,97767.03
2023-01-03T23:32:25.062Z,97740.03
2023-01-03T23:34:53.387Z,97770.84
2023-01-03T23:37:21.783Z,97769.00
2023-01-03T23:39:50.152Z,97766.19
2023-01-03T23:42:19.995Z,97764.84
2023-01-03T23:44:48.881Z,97755.78
2023-01-03T23:47:17.874Z,97755.97
2023-01-03T23:49:47.037Z,97760.66
2023-01-03T23:52:15.794Z,97759.47
2023-01-03T23:54:44.349Z,97754.94
2023-01-03T23:57:14.789Z,97752.59
2023-01-03T23:59:44.570Z,97751.78
